sensor_id;sensor_type;location;lat;lon;timestamp;P1;durP1;ratioP1;P2;durP2;ratioP2
44189;SDS011;29856;52.144;5.430;2023-09-12T00:00:03;49.22;;;32.25;;
44189;SDS011;29856;52.144;5.430;2023-09-12T00:02:29;45.72;;;34.47;;
44189;SDS011;29856;52.144;5.430;2023-09-12T00:04:54;45.88;;;34.38;;
44189;SDS011;29856;52.144;5.430;2023-09-12T00:07:19;54.97;;;39.85;;
44189;SDS011;29856;52.144;5.430;2023-09-12T00:09:45;55.30;;;38.53;;
44189;SDS011;29856;52.144;5.430;2023-09-12T00:12:13;47.60;;;35.67;;
44189;SDS011;29856;52.144;5.430;2023-09-12T00:14:39;49.67;;;36.13;;
44189;SDS011;29856;52.144;5.430;2023-09-12T00:17:04;49.88;;;36.42;;
44189;SDS011;29856;52.144;5.430;2023-09-12T00:19:30;46.38;;;32.50;;
44189;SDS011;29856;52.144;5.430;2023-09-12T00:21:55;41.60;;;31.23;;
44189;SDS011;29856;52.144;5.430;2023-09-12T00:24:21;48.63;;;36.33;;
44189;SDS011;29856;52.144;5.430;2023-09-12T00:26:46;47.05;;;32.63;;
44189;SDS011;29856;52.144;5.430;2023-09-12T00:29:12;39.92;;;28.73;;
44189;SDS011;29856;52.144;5.430;2023-09-12T00:31:37;44.10;;;30.92;;
44189;SDS011;29856;52.144;5.430;2023-09-12T00:34:03;35.97;;;28.13;;
44189;SDS011;29856;52.144;5.430;2023-09-12T00:36:28;43.05;;;30.30;;
44189;SDS011;29856;52.144;5.430;2023-09-12T00:38:54;42.08;;;28.95;;
44189;SDS011;29856;52.144;5.430;2023-09-12T00:41:19;46.05;;;33.08;;
44189;SDS011;29856;52.144;5.430;2023-09-12T00:43:45;37.72;;;29.35;;
44189;SDS011;29856;52.144;5.430;2023-09-12T00:46:10;43.72;;;33.47;;
44189;SDS011;29856;52.144;5.430;2023-09-12T00:48:39;45.85;;;32.50;;
44189;SDS011;29856;52.144;5.430;2023-09-12T00:51:04;45.65;;;32.53;;
44189;SDS011;29856;52.144;5.430;2023-09-12T00:53:31;41.13;;;31.17;;
44189;SDS011;29856;52.144;5.430;2023-09-12T00:55:57;48.33;;;33.83;;
44189;SDS011;29856;52.144;5.430;2023-09-12T00:58:24;51.58;;;35.72;;
44189;SDS011;29856;52.144;5.430;2023-09-12T01:00:51;45.35;;;33.50;;
44189;SDS011;29856;52.144;5.430;2023-09-12T01:03:17;49.35;;;33.45;;
44189;SDS011;29856;52.144;5.430;2023-09-12T01:05:42;47.75;;;33.33;;
44189;SDS011;29856;52.144;5.430;2023-09-12T01:08:09;40.83;;;30.65;;
44189;SDS011;29856;52.144;5.430;2023-09-12T01:10:35;53.20;;;34.13;;
44189;SDS011;29856;52.144;5.430;2023-09-12T01:13:01;45.40;;;33.22;;
44189;SDS011;29856;52.144;5.430;2023-09-12T01:15:27;52.35;;;35.92;;
44189;SDS011;29856;52.144;5.430;2023-09-12T01:17:52;46.58;;;33.70;;
44189;SDS011;29856;52.144;5.430;2023-09-12T01:20:21;49.10;;;33.95;;
44189;SDS011;29856;52.144;5.430;2023-09-12T01:23:00;47.30;;;34.17;;
44189;SDS011;29856;52.144;5.430;2023-09-12T01:28:39;38.38;;;29.60;;
44189;SDS011;29856;52.144;5.430;2023-09-12T01:31:05;51.78;;;37.40;;
44189;SDS011;29856;52.144;5.430;2023-09-12T01:33:31;48.08;;;35.78;;
44189;SDS011;29856;52.144;5.430;2023-09-12T01:35:57;45.38;;;32.50;;
44189;SDS011;29856;52.144;5.430;2023-09-12T01:38:22;42.13;;;31.95;;
44189;SDS011;29856;52.144;5.430;2023-09-12T01:40:51;41.95;;;32.70;;
44189;SDS011;29856;52.144;5.430;2023-09-12T01:43:21;45.33;;;33.53;;
44189;SDS011;29856;52.144;5.430;2023-09-12T01:45:49;48.42;;;31.80;;
44189;SDS011;29856;52.144;5.430;2023-09-12T01:48:18;39.47;;;30.00;;
44189;SDS011;29856;52.144;5.430;2023-09-12T01:50:46;36.85;;;28.52;;
44189;SDS011;29856;52.144;5.430;2023-09-12T01:53:12;38.00;;;30.25;;
44189;SDS011;29856;52.144;5.430;2023-09-12T01:55:37;40.03;;;30.83;;
44189;SDS011;29856;52.144;5.430;2023-09-12T01:58:03;36.38;;;28.77;;
44189;SDS011;29856;52.144;5.430;2023-09-12T02:00:29;47.88;;;34.60;;
44189;SDS011;29856;52.144;5.430;2023-09-12T02:02:55;40.83;;;29.10;;
44189;SDS011;29856;52.144;5.430;2023-09-12T02:05:21;37.03;;;30.25;;
44189;SDS011;29856;52.144;5.430;2023-09-12T02:07:47;34.92;;;28.55;;
44189;SDS011;29856;52.144;5.430;2023-09-12T02:10:13;44.13;;;33.08;;
44189;SDS011;29856;52.144;5.430;2023-09-12T02:12:39;45.17;;;32.53;;
44189;SDS011;29856;52.144;5.430;2023-09-12T02:15:05;86.75;;;37.72;;
44189;SDS011;29856;52.144;5.430;2023-09-12T02:17:31;44.60;;;32.97;;
44189;SDS011;29856;52.144;5.430;2023-09-12T02:19:56;35.80;;;29.23;;
44189;SDS011;29856;52.144;5.430;2023-09-12T02:22:22;39.10;;;30.30;;
44189;SDS011;29856;52.144;5.430;2023-09-12T02:24:47;37.25;;;28.77;;
44189;SDS011;29856;52.144;5.430;2023-09-12T02:27:13;37.95;;;29.48;;
44189;SDS011;29856;52.144;5.430;2023-09-12T02:29:39;158.88;;;33.38;;
44189;SDS011;29856;52.144;5.430;2023-09-12T02:32:05;37.05;;;28.70;;
44189;SDS011;29856;52.144;5.430;2023-09-12T02:34:31;29.95;;;24.17;;
44189;SDS011;29856;52.144;5.430;2023-09-12T02:36:57;37.00;;;28.48;;
44189;SDS011;29856;52.144;5.430;2023-09-12T02:39:23;68.70;;;28.63;;
44189;SDS011;29856;52.144;5.430;2023-09-12T02:41:48;34.75;;;26.25;;
44189;SDS011;29856;52.144;5.430;2023-09-12T02:44:13;33.58;;;24.35;;
44189;SDS011;29856;52.144;5.430;2023-09-12T02:46:39;39.83;;;24.27;;
44189;SDS011;29856;52.144;5.430;2023-09-12T02:49:04;32.70;;;23.73;;
44189;SDS011;29856;52.144;5.430;2023-09-12T02:51:30;33.45;;;23.50;;
44189;SDS011;29856;52.144;5.430;2023-09-12T02:53:56;33.00;;;22.17;;
44189;SDS011;29856;52.144;5.430;2023-09-12T02:56:22;28.98;;;22.50;;
44189;SDS011;29856;52.144;5.430;2023-09-12T02:58:47;26.50;;;21.55;;
44189;SDS011;29856;52.144;5.430;2023-09-12T03:01:16;32.92;;;22.65;;
44189;SDS011;29856;52.144;5.430;2023-09-12T03:03:43;51.97;;;26.02;;
44189;SDS011;29856;52.144;5.430;2023-09-12T03:06:10;29.88;;;25.30;;
44189;SDS011;29856;52.144;5.430;2023-09-12T03:08:36;28.80;;;24.70;;
44189;SDS011;29856;52.144;5.430;2023-09-12T03:11:01;27.10;;;22.67;;
44189;SDS011;29856;52.144;5.430;2023-09-12T03:13:27;25.73;;;22.00;;
44189;SDS011;29856;52.144;5.430;2023-09-12T03:15:53;27.70;;;23.13;;
44189;SDS011;29856;52.144;5.430;2023-09-12T03:18:18;35.92;;;29.90;;
44189;SDS011;29856;52.144;5.430;2023-09-12T03:20:44;45.70;;;36.42;;
44189;SDS011;29856;52.144;5.430;2023-09-12T03:23:09;30.92;;;25.88;;
44189;SDS011;29856;52.144;5.430;2023-09-12T03:25:38;30.65;;;26.30;;
44189;SDS011;29856;52.144;5.430;2023-09-12T03:28:04;32.47;;;26.85;;
44189;SDS011;29856;52.144;5.430;2023-09-12T03:30:34;25.15;;;22.30;;
44189;SDS011;29856;52.144;5.430;2023-09-12T03:33:00;36.47;;;29.60;;
44189;SDS011;29856;52.144;5.430;2023-09-12T03:35:26;39.85;;;31.95;;
44189;SDS011;29856;52.144;5.430;2023-09-12T03:37:53;31.65;;;25.52;;
44189;SDS011;29856;52.144;5.430;2023-09-12T03:40:18;24.30;;;21.50;;
44189;SDS011;29856;52.144;5.430;2023-09-12T03:42:44;21.20;;;19.08;;
44189;SDS011;29856;52.144;5.430;2023-09-12T03:45:09;19.17;;;17.17;;
44189;SDS011;29856;52.144;5.430;2023-09-12T03:47:35;16.70;;;15.10;;
44189;SDS011;29856;52.144;5.430;2023-09-12T03:50:00;15.98;;;14.40;;
44189;SDS011;29856;52.144;5.430;2023-09-12T03:52:26;15.23;;;13.88;;
44189;SDS011;29856;52.144;5.430;2023-09-12T03:54:51;15.07;;;13.68;;
44189;SDS011;29856;52.144;5.430;2023-09-12T03:57:17;15.52;;;13.88;;
44189;SDS011;29856;52.144;5.430;2023-09-12T03:59:42;15.80;;;14.20;;
44189;SDS011;29856;52.144;5.430;2023-09-12T04:02:08;15.73;;;14.25;;
44189;SDS011;29856;52.144;5.430;2023-09-12T04:04:34;16.73;;;15.13;;
44189;SDS011;29856;52.144;5.430;2023-09-12T04:06:59;15.25;;;13.75;;
44189;SDS011;29856;52.144;5.430;2023-09-12T04:09:24;14.80;;;13.50;;
44189;SDS011;29856;52.144;5.430;2023-09-12T04:11:50;16.10;;;14.52;;
44189;SDS011;29856;52.144;5.430;2023-09-12T04:14:15;16.58;;;14.98;;
44189;SDS011;29856;52.144;5.430;2023-09-12T04:16:41;14.90;;;13.50;;
44189;SDS011;29856;52.144;5.430;2023-09-12T04:19:06;16.10;;;14.52;;
44189;SDS011;29856;52.144;5.430;2023-09-12T04:21:32;17.60;;;15.68;;
44189;SDS011;29856;52.144;5.430;2023-09-12T04:23:57;15.55;;;13.90;;
44189;SDS011;29856;52.144;5.430;2023-09-12T04:26:23;22.10;;;16.58;;
44189;SDS011;29856;52.144;5.430;2023-09-12T04:28:48;27.70;;;21.88;;
44189;SDS011;29856;52.144;5.430;2023-09-12T04:31:14;36.70;;;23.20;;
44189;SDS011;29856;52.144;5.430;2023-09-12T04:33:39;40.40;;;29.67;;
44189;SDS011;29856;52.144;5.430;2023-09-12T04:36:05;67.28;;;31.00;;
44189;SDS011;29856;52.144;5.430;2023-09-12T04:38:30;59.00;;;30.73;;
44189;SDS011;29856;52.144;5.430;2023-09-12T04:40:56;49.80;;;31.27;;
44189;SDS011;29856;52.144;5.430;2023-09-12T04:43:21;53.03;;;32.95;;
44189;SDS011;29856;52.144;5.430;2023-09-12T04:45:47;58.92;;;33.30;;
44189;SDS011;29856;52.144;5.430;2023-09-12T04:48:12;41.88;;;30.60;;
44189;SDS011;29856;52.144;5.430;2023-09-12T04:50:41;58.90;;;31.55;;
44189;SDS011;29856;52.144;5.430;2023-09-12T04:53:07;53.50;;;31.45;;
44189;SDS011;29856;52.144;5.430;2023-09-12T04:55:32;51.65;;;32.90;;
44189;SDS011;29856;52.144;5.430;2023-09-12T04:57:59;44.70;;;31.30;;
44189;SDS011;29856;52.144;5.430;2023-09-12T05:00:25;45.78;;;31.45;;
44189;SDS011;29856;52.144;5.430;2023-09-12T05:02:50;47.75;;;32.45;;
44189;SDS011;29856;52.144;5.430;2023-09-12T05:05:16;45.40;;;30.65;;
44189;SDS011;29856;52.144;5.430;2023-09-12T05:07:41;44.78;;;29.73;;
44189;SDS011;29856;52.144;5.430;2023-09-12T05:10:07;49.20;;;30.45;;
44189;SDS011;29856;52.144;5.430;2023-09-12T05:12:32;44.35;;;29.35;;
44189;SDS011;29856;52.144;5.430;2023-09-12T05:14:58;41.28;;;27.38;;
44189;SDS011;29856;52.144;5.430;2023-09-12T05:17:23;35.25;;;25.35;;
44189;SDS011;29856;52.144;5.430;2023-09-12T05:19:49;37.38;;;27.20;;
44189;SDS011;29856;52.144;5.430;2023-09-12T05:22:14;40.15;;;28.50;;
44189;SDS011;29856;52.144;5.430;2023-09-12T05:24:40;40.85;;;29.35;;
44189;SDS011;29856;52.144;5.430;2023-09-12T05:27:05;39.63;;;28.98;;
44189;SDS011;29856;52.144;5.430;2023-09-12T05:29:31;42.25;;;29.00;;
44189;SDS011;29856;52.144;5.430;2023-09-12T05:31:56;43.95;;;30.92;;
44189;SDS011;29856;52.144;5.430;2023-09-12T05:34:22;45.00;;;32.05;;
44189;SDS011;29856;52.144;5.430;2023-09-12T05:36:47;48.50;;;32.20;;
44189;SDS011;29856;52.144;5.430;2023-09-12T05:39:13;46.60;;;31.90;;
44189;SDS011;29856;52.144;5.430;2023-09-12T05:41:38;52.15;;;33.47;;
44189;SDS011;29856;52.144;5.430;2023-09-12T05:44:04;41.80;;;28.25;;
44189;SDS011;29856;52.144;5.430;2023-09-12T05:46:29;52.40;;;34.90;;
44189;SDS011;29856;52.144;5.430;2023-09-12T05:48:55;48.95;;;34.03;;
44189;SDS011;29856;52.144;5.430;2023-09-12T05:51:20;44.05;;;30.58;;
44189;SDS011;29856;52.144;5.430;2023-09-12T05:53:46;54.28;;;35.30;;
44189;SDS011;29856;52.144;5.430;2023-09-12T05:56:11;48.67;;;34.20;;
44189;SDS011;29856;52.144;5.430;2023-09-12T05:58:37;38.60;;;27.92;;
44189;SDS011;29856;52.144;5.430;2023-09-12T06:01:02;54.03;;;35.40;;
44189;SDS011;29856;52.144;5.430;2023-09-12T06:03:28;49.75;;;33.55;;
44189;SDS011;29856;52.144;5.430;2023-09-12T06:05:53;55.15;;;38.28;;
44189;SDS011;29856;52.144;5.430;2023-09-12T06:08:19;59.15;;;39.70;;
44189;SDS011;29856;52.144;5.430;2023-09-12T06:10:44;51.47;;;35.00;;
44189;SDS011;29856;52.144;5.430;2023-09-12T06:13:09;48.83;;;33.10;;
44189;SDS011;29856;52.144;5.430;2023-09-12T06:15:35;55.05;;;35.55;;
44189;SDS011;29856;52.144;5.430;2023-09-12T06:18:00;57.67;;;38.30;;
44189;SDS011;29856;52.144;5.430;2023-09-12T06:20:26;61.40;;;40.45;;
44189;SDS011;29856;52.144;5.430;2023-09-12T06:22:51;56.83;;;34.60;;
44189;SDS011;29856;52.144;5.430;2023-09-12T06:25:17;55.65;;;38.78;;
44189;SDS011;29856;52.144;5.430;2023-09-12T06:27:42;56.78;;;36.80;;
44189;SDS011;29856;52.144;5.430;2023-09-12T06:30:08;55.65;;;36.40;;
44189;SDS011;29856;52.144;5.430;2023-09-12T06:32:34;52.38;;;36.20;;
44189;SDS011;29856;52.144;5.430;2023-09-12T06:34:59;51.55;;;34.20;;
44189;SDS011;29856;52.144;5.430;2023-09-12T06:37:25;56.35;;;37.40;;
44189;SDS011;29856;52.144;5.430;2023-09-12T06:39:50;58.05;;;37.80;;
44189;SDS011;29856;52.144;5.430;2023-09-12T06:42:16;51.72;;;35.13;;
44189;SDS011;29856;52.144;5.430;2023-09-12T06:44:41;58.40;;;37.35;;
44189;SDS011;29856;52.144;5.430;2023-09-12T06:47:07;59.00;;;35.50;;
44189;SDS011;29856;52.144;5.430;2023-09-12T06:49:32;57.30;;;37.50;;
44189;SDS011;29856;52.144;5.430;2023-09-12T06:51:57;53.95;;;35.50;;
44189;SDS011;29856;52.144;5.430;2023-09-12T06:54:23;50.78;;;32.70;;
44189;SDS011;29856;52.144;5.430;2023-09-12T06:56:48;55.35;;;37.40;;
44189;SDS011;29856;52.144;5.430;2023-09-12T06:59:14;62.78;;;39.95;;
44189;SDS011;29856;52.144;5.430;2023-09-12T07:01:39;65.47;;;40.05;;
44189;SDS011;29856;52.144;5.430;2023-09-12T07:04:05;53.35;;;34.50;;
44189;SDS011;29856;52.144;5.430;2023-09-12T07:06:30;61.47;;;39.55;;
44189;SDS011;29856;52.144;5.430;2023-09-12T07:08:56;62.95;;;42.28;;
44189;SDS011;29856;52.144;5.430;2023-09-12T07:11:21;64.75;;;41.58;;
44189;SDS011;29856;52.144;5.430;2023-09-12T07:13:47;70.20;;;42.70;;
44189;SDS011;29856;52.144;5.430;2023-09-12T07:16:12;65.25;;;41.45;;
44189;SDS011;29856;52.144;5.430;2023-09-12T07:18:38;64.35;;;41.67;;
44189;SDS011;29856;52.144;5.430;2023-09-12T07:21:04;60.92;;;39.45;;
44189;SDS011;29856;52.144;5.430;2023-09-12T07:23:30;58.08;;;38.47;;
44189;SDS011;29856;52.144;5.430;2023-09-12T07:25:56;57.53;;;37.65;;
44189;SDS011;29856;52.144;5.430;2023-09-12T07:28:22;53.10;;;36.35;;
44189;SDS011;29856;52.144;5.430;2023-09-12T07:30:51;67.63;;;39.88;;
44189;SDS011;29856;52.144;5.430;2023-09-12T07:33:17;65.60;;;41.28;;
44189;SDS011;29856;52.144;5.430;2023-09-12T07:35:42;55.92;;;37.83;;
44189;SDS011;29856;52.144;5.430;2023-09-12T07:38:08;52.70;;;34.78;;
44189;SDS011;29856;52.144;5.430;2023-09-12T07:40:34;59.65;;;36.17;;
44189;SDS011;29856;52.144;5.430;2023-09-12T07:42:59;57.15;;;35.75;;
44189;SDS011;29856;52.144;5.430;2023-09-12T07:45:25;58.58;;;37.60;;
44189;SDS011;29856;52.144;5.430;2023-09-12T07:47:50;57.63;;;37.63;;
44189;SDS011;29856;52.144;5.430;2023-09-12T07:50:15;61.55;;;39.40;;
44189;SDS011;29856;52.144;5.430;2023-09-12T07:52:41;61.17;;;39.00;;
44189;SDS011;29856;52.144;5.430;2023-09-12T07:55:07;59.22;;;38.00;;
44189;SDS011;29856;52.144;5.430;2023-09-12T07:57:33;54.20;;;35.75;;
44189;SDS011;29856;52.144;5.430;2023-09-12T07:59:58;53.92;;;34.85;;
44189;SDS011;29856;52.144;5.430;2023-09-12T08:02:24;52.60;;;34.85;;
44189;SDS011;29856;52.144;5.430;2023-09-12T08:04:50;42.53;;;29.30;;
44189;SDS011;29856;52.144;5.430;2023-09-12T08:07:16;43.67;;;30.02;;
44189;SDS011;29856;52.144;5.430;2023-09-12T08:09:52;44.95;;;29.55;;
44189;SDS011;29856;52.144;5.430;2023-09-12T08:12:20;44.30;;;29.45;;
44189;SDS011;29856;52.144;5.430;2023-09-12T08:14:47;42.78;;;29.73;;
44189;SDS011;29856;52.144;5.430;2023-09-12T08:17:13;43.35;;;30.05;;
44189;SDS011;29856;52.144;5.430;2023-09-12T08:19:39;47.33;;;29.40;;
44189;SDS011;29856;52.144;5.430;2023-09-12T08:22:05;44.65;;;28.35;;
44189;SDS011;29856;52.144;5.430;2023-09-12T08:24:31;45.67;;;29.15;;
44189;SDS011;29856;52.144;5.430;2023-09-12T08:26:57;45.55;;;29.33;;
44189;SDS011;29856;52.144;5.430;2023-09-12T08:29:22;45.17;;;28.70;;
44189;SDS011;29856;52.144;5.430;2023-09-12T08:31:48;46.55;;;30.20;;
44189;SDS011;29856;52.144;5.430;2023-09-12T08:34:13;44.92;;;28.85;;
44189;SDS011;29856;52.144;5.430;2023-09-12T08:36:39;44.53;;;29.27;;
44189;SDS011;29856;52.144;5.430;2023-09-12T08:39:04;40.05;;;27.10;;
44189;SDS011;29856;52.144;5.430;2023-09-12T08:41:30;36.90;;;25.23;;
44189;SDS011;29856;52.144;5.430;2023-09-12T08:43:56;44.90;;;28.00;;
44189;SDS011;29856;52.144;5.430;2023-09-12T08:46:21;41.47;;;27.02;;
44189;SDS011;29856;52.144;5.430;2023-09-12T08:48:48;41.28;;;27.77;;
44189;SDS011;29856;52.144;5.430;2023-09-12T08:51:14;39.90;;;26.60;;
44189;SDS011;29856;52.144;5.430;2023-09-12T08:53:40;39.75;;;25.13;;
44189;SDS011;29856;52.144;5.430;2023-09-12T08:56:05;36.10;;;24.17;;
44189;SDS011;29856;52.144;5.430;2023-09-12T08:58:32;34.03;;;24.38;;
44189;SDS011;29856;52.144;5.430;2023-09-12T09:00:59;44.13;;;27.23;;
44189;SDS011;29856;52.144;5.430;2023-09-12T09:03:25;33.60;;;23.45;;
44189;SDS011;29856;52.144;5.430;2023-09-12T09:05:51;41.47;;;25.67;;
44189;SDS011;29856;52.144;5.430;2023-09-12T09:08:20;45.15;;;26.75;;
44189;SDS011;29856;52.144;5.430;2023-09-12T09:10:56;43.25;;;27.08;;
44189;SDS011;29856;52.144;5.430;2023-09-12T09:13:23;41.20;;;25.98;;
44189;SDS011;29856;52.144;5.430;2023-09-12T09:16:10;42.90;;;26.42;;
44189;SDS011;29856;52.144;5.430;2023-09-12T09:21:21;42.22;;;26.30;;
44189;SDS011;29856;52.144;5.430;2023-09-12T09:23:48;41.47;;;26.95;;
44189;SDS011;29856;52.144;5.430;2023-09-12T09:26:13;42.72;;;27.83;;
44189;SDS011;29856;52.144;5.430;2023-09-12T09:28:39;38.88;;;25.95;;
44189;SDS011;29856;52.144;5.430;2023-09-12T09:31:05;38.90;;;27.85;;
44189;SDS011;29856;52.144;5.430;2023-09-12T09:33:35;40.72;;;26.83;;
44189;SDS011;29856;52.144;5.430;2023-09-12T09:36:04;40.03;;;24.77;;
44189;SDS011;29856;52.144;5.430;2023-09-12T09:38:31;34.53;;;25.38;;
44189;SDS011;29856;52.144;5.430;2023-09-12T09:40:56;38.05;;;26.70;;
44189;SDS011;29856;52.144;5.430;2023-09-12T09:43:22;39.08;;;28.70;;
44189;SDS011;29856;52.144;5.430;2023-09-12T09:45:48;44.83;;;30.92;;
44189;SDS011;29856;52.144;5.430;2023-09-12T09:48:17;40.45;;;28.52;;
44189;SDS011;29856;52.144;5.430;2023-09-12T09:50:44;44.28;;;29.48;;
44189;SDS011;29856;52.144;5.430;2023-09-12T09:53:09;45.30;;;30.40;;
44189;SDS011;29856;52.144;5.430;2023-09-12T09:55:35;40.00;;;29.05;;
44189;SDS011;29856;52.144;5.430;2023-09-12T09:58:00;38.80;;;27.42;;
44189;SDS011;29856;52.144;5.430;2023-09-12T10:00:26;45.92;;;32.15;;
44189;SDS011;29856;52.144;5.430;2023-09-12T10:02:54;41.10;;;29.15;;
44189;SDS011;29856;52.144;5.430;2023-09-12T10:05:20;39.88;;;27.88;;
44189;SDS011;29856;52.144;5.430;2023-09-12T10:07:48;39.42;;;26.95;;
44189;SDS011;29856;52.144;5.430;2023-09-12T10:10:14;37.50;;;27.33;;
44189;SDS011;29856;52.144;5.430;2023-09-12T10:12:43;39.60;;;27.38;;
44189;SDS011;29856;52.144;5.430;2023-09-12T10:15:17;38.72;;;26.90;;
44189;SDS011;29856;52.144;5.430;2023-09-12T10:17:45;41.17;;;28.13;;
44189;SDS011;29856;52.144;5.430;2023-09-12T10:20:16;38.05;;;25.90;;
44189;SDS011;29856;52.144;5.430;2023-09-12T10:22:52;35.85;;;28.00;;
44189;SDS011;29856;52.144;5.430;2023-09-12T10:25:27;36.42;;;26.58;;
44189;SDS011;29856;52.144;5.430;2023-09-12T10:27:54;36.83;;;26.27;;
44189;SDS011;29856;52.144;5.430;2023-09-12T10:30:21;32.42;;;23.52;;
44189;SDS011;29856;52.144;5.430;2023-09-12T10:32:47;32.20;;;24.20;;
44189;SDS011;29856;52.144;5.430;2023-09-12T10:35:14;33.25;;;23.55;;
44189;SDS011;29856;52.144;5.430;2023-09-12T10:37:41;27.92;;;22.13;;
44189;SDS011;29856;52.144;5.430;2023-09-12T10:40:10;30.73;;;22.85;;
44189;SDS011;29856;52.144;5.430;2023-09-12T10:42:37;33.03;;;21.25;;
44189;SDS011;29856;52.144;5.430;2023-09-12T10:45:05;34.25;;;23.58;;
44189;SDS011;29856;52.144;5.430;2023-09-12T10:47:31;27.58;;;20.02;;
44189;SDS011;29856;52.144;5.430;2023-09-12T10:49:57;28.48;;;19.52;;
44189;SDS011;29856;52.144;5.430;2023-09-12T10:52:26;25.73;;;20.67;;
44189;SDS011;29856;52.144;5.430;2023-09-12T10:54:52;35.22;;;24.55;;
44189;SDS011;29856;52.144;5.430;2023-09-12T10:57:18;37.33;;;25.92;;
44189;SDS011;29856;52.144;5.430;2023-09-12T11:02:28;34.90;;;25.20;;
44189;SDS011;29856;52.144;5.430;2023-09-12T11:04:54;32.47;;;23.23;;
44189;SDS011;29856;52.144;5.430;2023-09-12T11:07:30;29.42;;;22.90;;
44189;SDS011;29856;52.144;5.430;2023-09-12T11:12:38;28.48;;;21.05;;
44189;SDS011;29856;52.144;5.430;2023-09-12T11:15:03;26.80;;;21.00;;
44189;SDS011;29856;52.144;5.430;2023-09-12T11:17:30;26.88;;;19.48;;
44189;SDS011;29856;52.144;5.430;2023-09-12T11:20:03;28.85;;;20.42;;
44189;SDS011;29856;52.144;5.430;2023-09-12T11:22:29;29.13;;;19.98;;
44189;SDS011;29856;52.144;5.430;2023-09-12T11:24:55;24.00;;;15.85;;
44189;SDS011;29856;52.144;5.430;2023-09-12T11:27:22;29.17;;;20.60;;
44189;SDS011;29856;52.144;5.430;2023-09-12T11:29:50;22.77;;;18.27;;
44189;SDS011;29856;52.144;5.430;2023-09-12T11:32:31;21.45;;;15.90;;
44189;SDS011;29856;52.144;5.430;2023-09-12T11:35:04;19.55;;;15.15;;
44189;SDS011;29856;52.144;5.430;2023-09-12T11:37:31;19.80;;;12.98;;
44189;SDS011;29856;52.144;5.430;2023-09-12T11:39:57;16.20;;;12.50;;
44189;SDS011;29856;52.144;5.430;2023-09-12T11:42:23;18.13;;;13.48;;
44189;SDS011;29856;52.144;5.430;2023-09-12T11:44:49;17.77;;;14.45;;
44189;SDS011;29856;52.144;5.430;2023-09-12T11:47:15;22.65;;;18.02;;
44189;SDS011;29856;52.144;5.430;2023-09-12T11:49:41;22.05;;;16.73;;
44189;SDS011;29856;52.144;5.430;2023-09-12T11:52:10;23.08;;;16.45;;
44189;SDS011;29856;52.144;5.430;2023-09-12T11:54:36;23.00;;;15.88;;
44189;SDS011;29856;52.144;5.430;2023-09-12T11:57:02;19.70;;;15.43;;
44189;SDS011;29856;52.144;5.430;2023-09-12T11:59:31;22.67;;;16.63;;
44189;SDS011;29856;52.144;5.430;2023-09-12T12:01:56;17.67;;;13.32;;
44189;SDS011;29856;52.144;5.430;2023-09-12T12:04:23;17.77;;;13.98;;
44189;SDS011;29856;52.144;5.430;2023-09-12T12:06:50;19.30;;;13.43;;
44189;SDS011;29856;52.144;5.430;2023-09-12T12:09:17;19.83;;;13.93;;
44189;SDS011;29856;52.144;5.430;2023-09-12T12:11:43;20.13;;;14.50;;
44189;SDS011;29856;52.144;5.430;2023-09-12T12:14:16;16.13;;;12.73;;
44189;SDS011;29856;52.144;5.430;2023-09-12T12:16:42;18.17;;;12.80;;
44189;SDS011;29856;52.144;5.430;2023-09-12T12:19:09;18.65;;;15.13;;
44189;SDS011;29856;52.144;5.430;2023-09-12T12:21:36;21.25;;;13.30;;
44189;SDS011;29856;52.144;5.430;2023-09-12T12:24:01;15.90;;;11.32;;
44189;SDS011;29856;52.144;5.430;2023-09-12T12:26:28;17.35;;;10.70;;
44189;SDS011;29856;52.144;5.430;2023-09-12T12:28:55;16.85;;;12.60;;
44189;SDS011;29856;52.144;5.430;2023-09-12T12:31:20;13.57;;;9.88;;
44189;SDS011;29856;52.144;5.430;2023-09-12T12:33:49;13.95;;;10.40;;
44189;SDS011;29856;52.144;5.430;2023-09-12T12:36:15;14.30;;;11.02;;
44189;SDS011;29856;52.144;5.430;2023-09-12T12:38:41;12.23;;;9.32;;
44189;SDS011;29856;52.144;5.430;2023-09-12T12:41:06;10.63;;;8.88;;
44189;SDS011;29856;52.144;5.430;2023-09-12T12:43:31;12.95;;;9.43;;
44189;SDS011;29856;52.144;5.430;2023-09-12T12:45:58;14.93;;;9.65;;
44189;SDS011;29856;52.144;5.430;2023-09-12T12:48:33;10.25;;;9.20;;
44189;SDS011;29856;52.144;5.430;2023-09-12T12:51:11;10.30;;;7.53;;
44189;SDS011;29856;52.144;5.430;2023-09-12T12:53:54;16.77;;;12.93;;
44189;SDS011;29856;52.144;5.430;2023-09-12T12:56:28;17.60;;;13.63;;
44189;SDS011;29856;52.144;5.430;2023-09-12T12:58:55;14.60;;;10.38;;
44189;SDS011;29856;52.144;5.430;2023-09-12T13:01:21;14.52;;;11.20;;
44189;SDS011;29856;52.144;5.430;2023-09-12T13:03:47;13.07;;;9.23;;
44189;SDS011;29856;52.144;5.430;2023-09-12T13:06:12;10.98;;;9.70;;
44189;SDS011;29856;52.144;5.430;2023-09-12T13:08:39;14.63;;;10.30;;
44189;SDS011;29856;52.144;5.430;2023-09-12T13:11:08;12.02;;;8.98;;
44189;SDS011;29856;52.144;5.430;2023-09-12T13:13:35;10.98;;;9.52;;
44189;SDS011;29856;52.144;5.430;2023-09-12T13:16:01;11.07;;;8.27;;
44189;SDS011;29856;52.144;5.430;2023-09-12T13:18:27;9.25;;;6.50;;
44189;SDS011;29856;52.144;5.430;2023-09-12T13:20:52;8.38;;;6.60;;
44189;SDS011;29856;52.144;5.430;2023-09-12T13:23:18;13.38;;;8.20;;
44189;SDS011;29856;52.144;5.430;2023-09-12T13:25:43;8.27;;;6.10;;
44189;SDS011;29856;52.144;5.430;2023-09-12T13:28:09;8.43;;;6.30;;
44189;SDS011;29856;52.144;5.430;2023-09-12T13:30:34;8.25;;;6.03;;
44189;SDS011;29856;52.144;5.430;2023-09-12T13:33:00;10.65;;;6.97;;
44189;SDS011;29856;52.144;5.430;2023-09-12T13:35:25;8.00;;;6.10;;
44189;SDS011;29856;52.144;5.430;2023-09-12T13:37:51;11.05;;;7.90;;
44189;SDS011;29856;52.144;5.430;2023-09-12T13:40:16;6.90;;;3.83;;
44189;SDS011;29856;52.144;5.430;2023-09-12T13:42:42;5.32;;;4.03;;
44189;SDS011;29856;52.144;5.430;2023-09-12T13:45:07;5.13;;;4.05;;
44189;SDS011;29856;52.144;5.430;2023-09-12T13:47:33;8.68;;;4.60;;
44189;SDS011;29856;52.144;5.430;2023-09-12T13:49:58;8.02;;;5.53;;
44189;SDS011;29856;52.144;5.430;2023-09-12T13:52:26;10.23;;;5.65;;
44189;SDS011;29856;52.144;5.430;2023-09-12T13:54:51;7.95;;;6.03;;
44189;SDS011;29856;52.144;5.430;2023-09-12T13:57:18;9.50;;;5.90;;
44189;SDS011;29856;52.144;5.430;2023-09-12T13:59:44;9.60;;;6.60;;
44189;SDS011;29856;52.144;5.430;2023-09-12T14:02:09;8.77;;;6.35;;
44189;SDS011;29856;52.144;5.430;2023-09-12T14:04:35;15.57;;;9.40;;
44189;SDS011;29856;52.144;5.430;2023-09-12T14:07:00;13.43;;;9.13;;
44189;SDS011;29856;52.144;5.430;2023-09-12T14:09:26;14.90;;;9.10;;
44189;SDS011;29856;52.144;5.430;2023-09-12T14:11:51;17.10;;;10.65;;
44189;SDS011;29856;52.144;5.430;2023-09-12T14:14:16;16.27;;;10.50;;
44189;SDS011;29856;52.144;5.430;2023-09-12T14:16:42;14.52;;;10.70;;
44189;SDS011;29856;52.144;5.430;2023-09-12T14:19:08;13.75;;;10.63;;
44189;SDS011;29856;52.144;5.430;2023-09-12T14:21:34;17.08;;;11.13;;
44189;SDS011;29856;52.144;5.430;2023-09-12T14:23:59;14.98;;;11.00;;
44189;SDS011;29856;52.144;5.430;2023-09-12T14:26:24;16.63;;;11.15;;
44189;SDS011;29856;52.144;5.430;2023-09-12T14:28:50;15.98;;;12.13;;